Terminal Aerodrome Forecast
Issued by NWS

Home | Current Version | Previous Version | Text Only | Print | Product List | Glossary Off
Versions: 1 2 3 4 5 6 7 8 9 10 11 12 13 14 15 16 17 18 19 20 21 22 23 24 25 26

000
FTUS45 KGGW 241120
TAFOLF
TAF
KOLF 241120Z 2412/2512 27013G23KT P6SM BKN035
     FM241500 30019G27KT P6SM BKN020
     FM242000 32019G28KT P6SM OVC040
     FM250300 31006KT P6SM BKN060=

USA.gov is the U.S. government's official web portal to all federal, state and local government web resources and services.